sensor_id;sensor_type;location;lat;lon;timestamp;pressure;altitude;pressure_sealevel;temperature;humidity
68376;BME280;55318;52.068;5.188;2023-04-12T00:00:52;100521.0;;;10.32;90.25
68376;BME280;55318;52.068;5.188;2023-04-12T00:02:28;100506.0;;;10.37;90.24
68376;BME280;55318;52.068;5.188;2023-04-12T00:04:04;100507.0;;;10.39;90.78
68376;BME280;55318;52.068;5.188;2023-04-12T00:07:16;100502.0;;;10.29;91.36
68376;BME280;55318;52.068;5.188;2023-04-12T00:08:52;100498.0;;;10.16;92.39
68376;BME280;55318;52.068;5.188;2023-04-12T00:10:29;100491.0;;;10.23;91.91
68376;BME280;55318;52.068;5.188;2023-04-12T00:12:06;100491.0;;;10.06;92.29
68376;BME280;55318;52.068;5.188;2023-04-12T00:15:18;100486.0;;;9.99;93.36
68376;BME280;55318;52.068;5.188;2023-04-12T00:16:54;100483.0;;;9.89;93.3
68376;BME280;55318;52.068;5.188;2023-04-12T00:18:30;100465.0;;;9.9;93.93
68376;BME280;55318;52.068;5.188;2023-04-12T00:21:44;100464.0;;;9.96;94.14
68376;BME280;55318;52.068;5.188;2023-04-12T00:23:20;100459.0;;;9.82;94.45
68376;BME280;55318;52.068;5.188;2023-04-12T00:24:56;100450.0;;;9.81;94.79
68376;BME280;55318;52.068;5.188;2023-04-12T00:28:09;100445.0;;;9.83;94.78
68376;BME280;55318;52.068;5.188;2023-04-12T00:29:45;100444.0;;;9.71;95.24
68376;BME280;55318;52.068;5.188;2023-04-12T00:31:21;100436.0;;;9.69;95.7
68376;BME280;55318;52.068;5.188;2023-04-12T00:34:33;100434.0;;;9.89;95.15
68376;BME280;55318;52.068;5.188;2023-04-12T00:36:10;100428.0;;;9.77;94.93
68376;BME280;55318;52.068;5.188;2023-04-12T00:37:46;100415.0;;;9.86;95.25
68376;BME280;55318;52.068;5.188;2023-04-12T00:39:22;100416.0;;;9.84;94.96
68376;BME280;55318;52.068;5.188;2023-04-12T00:42:35;100399.0;;;9.68;95.74
68376;BME280;55318;52.068;5.188;2023-04-12T00:44:12;100386.0;;;9.6;96.33
68376;BME280;55318;52.068;5.188;2023-04-12T00:45:48;100384.0;;;9.59;96.57
68376;BME280;55318;52.068;5.188;2023-04-12T00:49:01;100374.0;;;9.47;97.04
68376;BME280;55318;52.068;5.188;2023-04-12T00:50:38;100367.0;;;9.46;97.11
68376;BME280;55318;52.068;5.188;2023-04-12T00:52:15;100361.0;;;9.44;97.85
68376;BME280;55318;52.068;5.188;2023-04-12T00:55:31;100352.0;;;9.41;97.54
68376;BME280;55318;52.068;5.188;2023-04-12T00:57:08;100343.0;;;9.34;98.16
68376;BME280;55318;52.068;5.188;2023-04-12T00:58:44;100330.0;;;9.36;98.31
68376;BME280;55318;52.068;5.188;2023-04-12T01:00:20;100330.0;;;9.34;98.43
68376;BME280;55318;52.068;5.188;2023-04-12T01:03:35;100336.0;;;9.32;98.37
68376;BME280;55318;52.068;5.188;2023-04-12T01:05:11;100337.0;;;9.34;98.86
68376;BME280;55318;52.068;5.188;2023-04-12T01:07:06;100327.0;;;9.36;98.61
68376;BME280;55318;52.068;5.188;2023-04-12T01:08:52;100331.0;;;9.34;98.84
68376;BME280;55318;52.068;5.188;2023-04-12T01:12:39;100312.0;;;9.28;99.37
68376;BME280;55318;52.068;5.188;2023-04-12T01:14:23;100302.0;;;9.35;99.27
68376;BME280;55318;52.068;5.188;2023-04-12T01:16:15;100298.0;;;9.22;99.41
68376;BME280;55318;52.068;5.188;2023-04-12T01:17:56;100292.0;;;9.25;99.7
68376;BME280;55318;52.068;5.188;2023-04-12T01:19:46;100285.0;;;9.36;99.44
68376;BME280;55318;52.068;5.188;2023-04-12T01:21:35;100280.0;;;9.3;99.51
68376;BME280;55318;52.068;5.188;2023-04-12T01:23:43;100275.0;;;9.3;99.63
68376;BME280;55318;52.068;5.188;2023-04-12T01:25:37;100273.0;;;9.39;98.97
68376;BME280;55318;52.068;5.188;2023-04-12T01:29:08;100261.0;;;9.35;98.9
68376;BME280;55318;52.068;5.188;2023-04-12T01:30:46;100255.0;;;9.39;98.93
68376;BME280;55318;52.068;5.188;2023-04-12T01:32:25;100239.0;;;9.39;98.92
68376;BME280;55318;52.068;5.188;2023-04-12T01:34:03;100244.0;;;9.3;99.39
68376;BME280;55318;52.068;5.188;2023-04-12T01:37:19;100240.0;;;9.35;99.49
68376;BME280;55318;52.068;5.188;2023-04-12T01:38:56;100231.0;;;9.47;99.37
68376;BME280;55318;52.068;5.188;2023-04-12T01:40:34;100234.0;;;9.47;98.99
68376;BME280;55318;52.068;5.188;2023-04-12T01:42:11;100218.0;;;9.48;98.86
68376;BME280;55318;52.068;5.188;2023-04-12T01:45:23;100217.0;;;9.52;98.68
68376;BME280;55318;52.068;5.188;2023-04-12T01:46:59;100210.0;;;9.53;98.58
68376;BME280;55318;52.068;5.188;2023-04-12T01:48:35;100202.0;;;9.47;98.89
68376;BME280;55318;52.068;5.188;2023-04-12T01:52:00;100201.0;;;9.4;99.1
68376;BME280;55318;52.068;5.188;2023-04-12T01:53:44;100196.0;;;9.49;98.86
68376;BME280;55318;52.068;5.188;2023-04-12T01:55:24;100191.0;;;9.48;98.94
68376;BME280;55318;52.068;5.188;2023-04-12T01:57:04;100183.0;;;9.5;98.71
68376;BME280;55318;52.068;5.188;2023-04-12T02:00:21;100185.0;;;9.44;98.85
68376;BME280;55318;52.068;5.188;2023-04-12T02:01:58;100175.0;;;9.43;98.85
68376;BME280;55318;52.068;5.188;2023-04-12T02:03:35;100165.0;;;9.46;98.71
68376;BME280;55318;52.068;5.188;2023-04-12T02:05:12;100164.0;;;9.46;98.63
68376;BME280;55318;52.068;5.188;2023-04-12T02:08:25;100155.0;;;9.31;98.72
68376;BME280;55318;52.068;5.188;2023-04-12T02:10:01;100140.0;;;9.31;99.24
68376;BME280;55318;52.068;5.188;2023-04-12T02:11:37;100136.0;;;9.3;99.7
68376;BME280;55318;52.068;5.188;2023-04-12T02:14:49;100138.0;;;9.35;99.21
68376;BME280;55318;52.068;5.188;2023-04-12T02:16:26;100134.0;;;9.39;99.34
68376;BME280;55318;52.068;5.188;2023-04-12T02:18:02;100131.0;;;9.38;99.79
68376;BME280;55318;52.068;5.188;2023-04-12T02:21:14;100110.0;;;9.38;99.86
68376;BME280;55318;52.068;5.188;2023-04-12T02:22:50;100113.0;;;9.4;99.75
68376;BME280;55318;52.068;5.188;2023-04-12T02:24:26;100105.0;;;9.46;99.94
68376;BME280;55318;52.068;5.188;2023-04-12T02:26:03;100096.0;;;9.42;100.0
68376;BME280;55318;52.068;5.188;2023-04-12T02:29:15;100086.0;;;9.36;100.0
68376;BME280;55318;52.068;5.188;2023-04-12T02:30:51;100085.0;;;9.39;100.0
68376;BME280;55318;52.068;5.188;2023-04-12T02:32:27;100076.0;;;9.43;99.55
68376;BME280;55318;52.068;5.188;2023-04-12T02:35:41;100076.0;;;9.43;99.29
68376;BME280;55318;52.068;5.188;2023-04-12T02:37:17;100062.0;;;9.4;99.12
68376;BME280;55318;52.068;5.188;2023-04-12T02:38:53;100056.0;;;9.39;99.64
68376;BME280;55318;52.068;5.188;2023-04-12T02:42:05;100050.0;;;9.33;99.63
68376;BME280;55318;52.068;5.188;2023-04-12T02:43:41;100047.0;;;9.42;99.78
68376;BME280;55318;52.068;5.188;2023-04-12T02:45:18;100050.0;;;9.48;99.34
68376;BME280;55318;52.068;5.188;2023-04-12T02:46:54;100048.0;;;9.46;99.65
68376;BME280;55318;52.068;5.188;2023-04-12T02:50:07;100052.0;;;9.44;99.72
68376;BME280;55318;52.068;5.188;2023-04-12T02:51:43;100032.0;;;9.39;100.0
68376;BME280;55318;52.068;5.188;2023-04-12T02:53:19;100016.0;;;9.34;100.0
68376;BME280;55318;52.068;5.188;2023-04-12T02:56:34;100017.0;;;9.43;100.0
68376;BME280;55318;52.068;5.188;2023-04-12T02:58:10;100025.0;;;9.36;100.0
68376;BME280;55318;52.068;5.188;2023-04-12T02:59:46;99991.0;;;9.47;100.0
68376;BME280;55318;52.068;5.188;2023-04-12T03:02:58;99981.0;;;9.26;100.0
68376;BME280;55318;52.068;5.188;2023-04-12T03:04:35;99992.0;;;9.34;100.0
68376;BME280;55318;52.068;5.188;2023-04-12T03:06:11;99985.0;;;9.32;100.0
68376;BME280;55318;52.068;5.188;2023-04-12T03:07:47;99992.0;;;9.4;100.0
68376;BME280;55318;52.068;5.188;2023-04-12T03:11:00;99984.0;;;9.48;100.0
68376;BME280;55318;52.068;5.188;2023-04-12T03:12:36;99963.0;;;9.39;100.0
68376;BME280;55318;52.068;5.188;2023-04-12T03:14:12;99978.0;;;9.36;100.0
68376;BME280;55318;52.068;5.188;2023-04-12T03:17:24;99985.0;;;9.24;100.0
68376;BME280;55318;52.068;5.188;2023-04-12T03:19:00;99968.0;;;9.26;100.0
68376;BME280;55318;52.068;5.188;2023-04-12T03:20:36;99973.0;;;9.23;100.0
68376;BME280;55318;52.068;5.188;2023-04-12T03:23:49;99985.0;;;9.39;100.0
68376;BME280;55318;52.068;5.188;2023-04-12T03:25:25;99974.0;;;9.39;100.0
68376;BME280;55318;52.068;5.188;2023-04-12T03:27:01;99969.0;;;9.3;100.0
68376;BME280;55318;52.068;5.188;2023-04-12T03:30:15;99955.0;;;9.31;100.0
68376;BME280;55318;52.068;5.188;2023-04-12T03:31:51;99951.0;;;9.25;100.0
68376;BME280;55318;52.068;5.188;2023-04-12T03:33:27;99955.0;;;9.27;100.0
68376;BME280;55318;52.068;5.188;2023-04-12T03:35:04;99959.0;;;9.3;100.0
68376;BME280;55318;52.068;5.188;2023-04-12T03:38:16;99955.0;;;9.3;100.0
68376;BME280;55318;52.068;5.188;2023-04-12T03:39:52;99938.0;;;9.15;100.0
68376;BME280;55318;52.068;5.188;2023-04-12T03:41:28;99933.0;;;9.17;100.0
68376;BME280;55318;52.068;5.188;2023-04-12T03:44:40;99938.0;;;9.19;100.0
68376;BME280;55318;52.068;5.188;2023-04-12T03:46:16;99931.0;;;9.11;100.0
68376;BME280;55318;52.068;5.188;2023-04-12T03:47:52;99933.0;;;9.21;100.0
68376;BME280;55318;52.068;5.188;2023-04-12T03:51:05;99927.0;;;9.17;100.0
68376;BME280;55318;52.068;5.188;2023-04-12T03:52:42;99918.0;;;9.11;100.0
68376;BME280;55318;52.068;5.188;2023-04-12T03:54:18;99918.0;;;9.16;100.0
68376;BME280;55318;52.068;5.188;2023-04-12T03:55:55;99902.0;;;9.21;100.0
68376;BME280;55318;52.068;5.188;2023-04-12T03:59:07;99891.0;;;9.26;100.0
68376;BME280;55318;52.068;5.188;2023-04-12T04:00:43;99886.0;;;9.15;100.0
68376;BME280;55318;52.068;5.188;2023-04-12T04:02:20;99887.0;;;9.14;100.0
68376;BME280;55318;52.068;5.188;2023-04-12T04:05:32;99880.0;;;9.14;100.0
68376;BME280;55318;52.068;5.188;2023-04-12T04:07:09;99875.0;;;9.09;100.0
68376;BME280;55318;52.068;5.188;2023-04-12T04:08:46;99876.0;;;9.25;100.0
68376;BME280;55318;52.068;5.188;2023-04-12T04:11:58;99870.0;;;9.34;100.0
68376;BME280;55318;52.068;5.188;2023-04-12T04:13:34;99862.0;;;9.33;100.0
68376;BME280;55318;52.068;5.188;2023-04-12T04:15:13;99867.0;;;9.08;100.0
68376;BME280;55318;52.068;5.188;2023-04-12T04:16:50;99857.0;;;9.14;100.0
68376;BME280;55318;52.068;5.188;2023-04-12T04:20:02;99850.0;;;9.08;100.0
68376;BME280;55318;52.068;5.188;2023-04-12T04:21:39;99847.0;;;9.24;100.0
68376;BME280;55318;52.068;5.188;2023-04-12T04:23:15;99858.0;;;9.35;100.0
68376;BME280;55318;52.068;5.188;2023-04-12T04:26:27;99856.0;;;9.38;100.0
68376;BME280;55318;52.068;5.188;2023-04-12T04:28:04;99844.0;;;9.34;100.0
68376;BME280;55318;52.068;5.188;2023-04-12T04:29:41;99850.0;;;9.27;100.0
68376;BME280;55318;52.068;5.188;2023-04-12T04:32:53;99830.0;;;9.3;100.0
68376;BME280;55318;52.068;5.188;2023-04-12T04:34:29;99834.0;;;9.25;100.0
68376;BME280;55318;52.068;5.188;2023-04-12T04:36:06;99850.0;;;9.3;100.0
68376;BME280;55318;52.068;5.188;2023-04-12T04:39:18;99840.0;;;9.47;100.0
68376;BME280;55318;52.068;5.188;2023-04-12T04:40:54;99824.0;;;9.43;100.0
68376;BME280;55318;52.068;5.188;2023-04-12T04:42:31;99800.0;;;9.31;100.0
68376;BME280;55318;52.068;5.188;2023-04-12T04:44:07;99828.0;;;9.36;100.0
68376;BME280;55318;52.068;5.188;2023-04-12T04:47:21;99844.0;;;9.52;100.0
68376;BME280;55318;52.068;5.188;2023-04-12T04:48:57;99837.0;;;9.53;100.0
68376;BME280;55318;52.068;5.188;2023-04-12T04:50:35;99825.0;;;9.52;100.0
68376;BME280;55318;52.068;5.188;2023-04-12T04:53:47;99820.0;;;9.39;100.0
68376;BME280;55318;52.068;5.188;2023-04-12T04:55:24;99823.0;;;9.51;100.0
68376;BME280;55318;52.068;5.188;2023-04-12T04:57:00;99834.0;;;9.58;100.0
68376;BME280;55318;52.068;5.188;2023-04-12T05:00:12;99837.0;;;9.64;100.0
68376;BME280;55318;52.068;5.188;2023-04-12T05:01:48;99834.0;;;9.71;100.0
68376;BME280;55318;52.068;5.188;2023-04-12T05:03:26;99823.0;;;9.72;100.0
68376;BME280;55318;52.068;5.188;2023-04-12T05:05:03;99824.0;;;9.74;100.0
68376;BME280;55318;52.068;5.188;2023-04-12T05:08:15;99819.0;;;9.53;100.0
68376;BME280;55318;52.068;5.188;2023-04-12T05:09:51;99810.0;;;9.6;100.0
68376;BME280;55318;52.068;5.188;2023-04-12T05:11:27;99826.0;;;9.55;100.0
68376;BME280;55318;52.068;5.188;2023-04-12T05:14:40;99830.0;;;9.53;100.0
68376;BME280;55318;52.068;5.188;2023-04-12T05:16:16;99816.0;;;9.56;100.0
68376;BME280;55318;52.068;5.188;2023-04-12T05:17:52;99814.0;;;9.64;100.0
68376;BME280;55318;52.068;5.188;2023-04-12T05:21:05;99816.0;;;9.64;100.0
68376;BME280;55318;52.068;5.188;2023-04-12T05:22:41;99809.0;;;9.8;100.0
68376;BME280;55318;52.068;5.188;2023-04-12T05:24:18;99805.0;;;9.8;100.0
68376;BME280;55318;52.068;5.188;2023-04-12T05:25:54;99806.0;;;9.74;100.0
68376;BME280;55318;52.068;5.188;2023-04-12T05:29:06;99810.0;;;9.8;100.0
68376;BME280;55318;52.068;5.188;2023-04-12T05:30:43;99808.0;;;9.89;100.0
68376;BME280;55318;52.068;5.188;2023-04-12T05:32:19;99817.0;;;9.92;100.0
68376;BME280;55318;52.068;5.188;2023-04-12T05:35:32;99816.0;;;9.98;100.0
68376;BME280;55318;52.068;5.188;2023-04-12T05:37:08;99820.0;;;9.94;100.0
68376;BME280;55318;52.068;5.188;2023-04-12T05:38:44;99822.0;;;10.0;100.0
68376;BME280;55318;52.068;5.188;2023-04-12T05:41:56;99818.0;;;10.02;100.0
68376;BME280;55318;52.068;5.188;2023-04-12T05:43:32;99810.0;;;9.94;100.0
68376;BME280;55318;52.068;5.188;2023-04-12T05:45:09;99800.0;;;9.73;100.0
68376;BME280;55318;52.068;5.188;2023-04-12T05:48:22;99814.0;;;9.83;100.0
68376;BME280;55318;52.068;5.188;2023-04-12T05:49:58;99808.0;;;9.83;100.0
68376;BME280;55318;52.068;5.188;2023-04-12T05:51:34;99818.0;;;9.88;100.0
68376;BME280;55318;52.068;5.188;2023-04-12T05:53:10;99823.0;;;9.94;100.0
68376;BME280;55318;52.068;5.188;2023-04-12T05:56:22;99824.0;;;10.11;100.0
68376;BME280;55318;52.068;5.188;2023-04-12T05:57:58;99824.0;;;10.22;100.0
68376;BME280;55318;52.068;5.188;2023-04-12T05:59:35;99822.0;;;10.21;100.0
68376;BME280;55318;52.068;5.188;2023-04-12T06:02:47;99824.0;;;10.29;100.0
68376;BME280;55318;52.068;5.188;2023-04-12T06:04:23;99826.0;;;10.33;100.0
68376;BME280;55318;52.068;5.188;2023-04-12T06:06:00;99828.0;;;10.48;100.0
68376;BME280;55318;52.068;5.188;2023-04-12T06:09:12;99823.0;;;10.58;100.0
68376;BME280;55318;52.068;5.188;2023-04-12T06:10:48;99826.0;;;10.6;99.37
68376;BME280;55318;52.068;5.188;2023-04-12T06:12:25;99816.0;;;10.56;99.33
68376;BME280;55318;52.068;5.188;2023-04-12T06:14:01;99813.0;;;10.67;98.79
68376;BME280;55318;52.068;5.188;2023-04-12T06:17:13;99812.0;;;10.73;98.06
68376;BME280;55318;52.068;5.188;2023-04-12T06:18:49;99813.0;;;10.71;98.36
68376;BME280;55318;52.068;5.188;2023-04-12T06:20:25;99808.0;;;10.82;97.87
68376;BME280;55318;52.068;5.188;2023-04-12T06:23:38;99816.0;;;10.84;97.87
68376;BME280;55318;52.068;5.188;2023-04-12T06:25:14;99816.0;;;10.81;98.11
68376;BME280;55318;52.068;5.188;2023-04-12T06:26:50;99819.0;;;10.86;97.82
68376;BME280;55318;52.068;5.188;2023-04-12T06:30:02;99817.0;;;10.85;97.99
68376;BME280;55318;52.068;5.188;2023-04-12T06:33:14;99809.0;;;10.78;98.06
68376;BME280;55318;52.068;5.188;2023-04-12T06:36:27;99807.0;;;10.88;98.08
68376;BME280;55318;52.068;5.188;2023-04-12T06:38:03;99811.0;;;10.81;98.34
68376;BME280;55318;52.068;5.188;2023-04-12T06:39:39;99808.0;;;10.73;98.18
68376;BME280;55318;52.068;5.188;2023-04-12T06:41:15;99812.0;;;10.79;98.93
68376;BME280;55318;52.068;5.188;2023-04-12T06:44:27;99806.0;;;10.97;97.66
68376;BME280;55318;52.068;5.188;2023-04-12T06:46:03;99803.0;;;11.05;97.48
68376;BME280;55318;52.068;5.188;2023-04-12T06:47:40;99807.0;;;11.13;97.31
68376;BME280;55318;52.068;5.188;2023-04-12T06:50:52;99802.0;;;11.15;97.42
68376;BME280;55318;52.068;5.188;2023-04-12T06:52:28;99797.0;;;11.2;97.36
68376;BME280;55318;52.068;5.188;2023-04-12T06:54:04;99798.0;;;11.27;96.67
68376;BME280;55318;52.068;5.188;2023-04-12T06:57:17;99793.0;;;11.27;96.92
68376;BME280;55318;52.068;5.188;2023-04-12T06:58:53;99799.0;;;11.29;96.79
68376;BME280;55318;52.068;5.188;2023-04-12T07:00:29;99802.0;;;11.34;96.62
68376;BME280;55318;52.068;5.188;2023-04-12T07:02:05;99806.0;;;11.27;96.77
68376;BME280;55318;52.068;5.188;2023-04-12T07:05:17;99806.0;;;11.34;96.58
68376;BME280;55318;52.068;5.188;2023-04-12T07:06:53;99798.0;;;11.22;96.65
68376;BME280;55318;52.068;5.188;2023-04-12T07:08:31;99799.0;;;11.32;96.83
68376;BME280;55318;52.068;5.188;2023-04-12T07:11:44;99793.0;;;11.27;97.15
68376;BME280;55318;52.068;5.188;2023-04-12T07:13:20;99799.0;;;11.28;96.96
68376;BME280;55318;52.068;5.188;2023-04-12T07:14:56;99801.0;;;11.46;96.6
68376;BME280;55318;52.068;5.188;2023-04-12T07:18:08;99797.0;;;11.39;97.03
68376;BME280;55318;52.068;5.188;2023-04-12T07:19:44;99803.0;;;11.43;96.72
68376;BME280;55318;52.068;5.188;2023-04-12T07:21:20;99806.0;;;11.37;96.9
68376;BME280;55318;52.068;5.188;2023-04-12T07:24:33;99803.0;;;11.49;96.63
68376;BME280;55318;52.068;5.188;2023-04-12T07:26:09;99809.0;;;11.5;96.7
68376;BME280;55318;52.068;5.188;2023-04-12T07:27:45;99803.0;;;11.58;96.34
68376;BME280;55318;52.068;5.188;2023-04-12T07:29:21;99805.0;;;11.49;96.35
68376;BME280;55318;52.068;5.188;2023-04-12T07:32:34;99808.0;;;11.54;96.54
68376;BME280;55318;52.068;5.188;2023-04-12T07:34:11;99798.0;;;11.44;96.43
68376;BME280;55318;52.068;5.188;2023-04-12T07:35:47;99798.0;;;11.59;96.56
68376;BME280;55318;52.068;5.188;2023-04-12T07:38:59;99794.0;;;11.5;96.95
68376;BME280;55318;52.068;5.188;2023-04-12T07:40:35;99794.0;;;11.58;97.05
68376;BME280;55318;52.068;5.188;2023-04-12T07:42:11;99794.0;;;11.69;96.21
68376;BME280;55318;52.068;5.188;2023-04-12T07:45:23;99791.0;;;11.68;96.31
68376;BME280;55318;52.068;5.188;2023-04-12T07:47:00;99788.0;;;11.69;96.28
68376;BME280;55318;52.068;5.188;2023-04-12T07:48:36;99794.0;;;11.45;96.94
68376;BME280;55318;52.068;5.188;2023-04-12T07:50:12;99789.0;;;11.69;96.39
68376;BME280;55318;52.068;5.188;2023-04-12T07:53:26;99797.0;;;11.89;96.5
68376;BME280;55318;52.068;5.188;2023-04-12T07:55:03;99791.0;;;11.89;95.7
68376;BME280;55318;52.068;5.188;2023-04-12T07:56:39;99792.0;;;11.92;95.02
68376;BME280;55318;52.068;5.188;2023-04-12T07:59:53;99794.0;;;11.99;95.4
68376;BME280;55318;52.068;5.188;2023-04-12T08:01:29;99796.0;;;12.08;95.17
68376;BME280;55318;52.068;5.188;2023-04-12T08:03:05;99797.0;;;12.03;94.64
68376;BME280;55318;52.068;5.188;2023-04-12T08:06:17;99794.0;;;12.0;94.25
68376;BME280;55318;52.068;5.188;2023-04-12T08:07:53;99794.0;;;11.78;93.47
68376;BME280;55318;52.068;5.188;2023-04-12T08:09:30;99781.0;;;12.19;93.64
68376;BME280;55318;52.068;5.188;2023-04-12T08:12:42;99775.0;;;12.06;96.05
68376;BME280;55318;52.068;5.188;2023-04-12T08:14:18;99771.0;;;12.24;95.06
68376;BME280;55318;52.068;5.188;2023-04-12T08:15:55;99774.0;;;12.31;93.77
68376;BME280;55318;52.068;5.188;2023-04-12T08:17:31;99772.0;;;12.26;93.5
68376;BME280;55318;52.068;5.188;2023-04-12T08:20:43;99772.0;;;12.4;92.95
68376;BME280;55318;52.068;5.188;2023-04-12T08:22:20;99755.0;;;12.31;92.87
68376;BME280;55318;52.068;5.188;2023-04-12T08:23:56;99755.0;;;12.5;92.04
68376;BME280;55318;52.068;5.188;2023-04-12T08:27:08;99759.0;;;12.63;92.21
68376;BME280;55318;52.068;5.188;2023-04-12T08:28:44;99763.0;;;12.61;89.91
68376;BME280;55318;52.068;5.188;2023-04-12T08:30:20;99771.0;;;12.79;89.59
68376;BME280;55318;52.068;5.188;2023-04-12T08:33:33;99771.0;;;13.03;91.25
68376;BME280;55318;52.068;5.188;2023-04-12T08:35:09;99775.0;;;13.04;90.43
68376;BME280;55318;52.068;5.188;2023-04-12T08:36:45;99769.0;;;13.03;88.41
68376;BME280;55318;52.068;5.188;2023-04-12T08:38:21;99774.0;;;13.09;86.78
68376;BME280;55318;52.068;5.188;2023-04-12T08:41:35;99780.0;;;13.22;85.94
68376;BME280;55318;52.068;5.188;2023-04-12T08:43:14;99787.0;;;13.14;85.66
68376;BME280;55318;52.068;5.188;2023-04-12T08:44:52;99795.0;;;13.28;84.82
68376;BME280;55318;52.068;5.188;2023-04-12T08:48:05;99788.0;;;13.03;81.41
68376;BME280;55318;52.068;5.188;2023-04-12T08:49:41;99786.0;;;13.03;82.78
68376;BME280;55318;52.068;5.188;2023-04-12T08:51:19;99786.0;;;13.12;84.71
68376;BME280;55318;52.068;5.188;2023-04-12T08:54:35;99789.0;;;13.15;81.84
68376;BME280;55318;52.068;5.188;2023-04-12T08:56:12;99789.0;;;13.14;80.77
68376;BME280;55318;52.068;5.188;2023-04-12T08:57:52;99788.0;;;13.38;83.06
68376;BME280;55318;52.068;5.188;2023-04-12T08:59:29;99782.0;;;13.49;81.44
68376;BME280;55318;52.068;5.188;2023-04-12T09:02:46;99778.0;;;13.49;79.66
68376;BME280;55318;52.068;5.188;2023-04-12T09:04:23;99776.0;;;13.85;81.34
68376;BME280;55318;52.068;5.188;2023-04-12T09:06:01;99769.0;;;14.07;81.77
68376;BME280;55318;52.068;5.188;2023-04-12T09:07:37;99774.0;;;13.99;76.28
68376;BME280;55318;52.068;5.188;2023-04-12T09:10:49;99778.0;;;13.93;75.05
68376;BME280;55318;52.068;5.188;2023-04-12T09:12:26;99773.0;;;14.08;75.12
68376;BME280;55318;52.068;5.188;2023-04-12T09:14:02;99766.0;;;14.06;76.33
68376;BME280;55318;52.068;5.188;2023-04-12T09:17:25;99758.0;;;13.95;75.89
68376;BME280;55318;52.068;5.188;2023-04-12T09:19:03;99755.0;;;13.97;74.06
68376;BME280;55318;52.068;5.188;2023-04-12T09:20:39;99756.0;;;13.93;75.23
68376;BME280;55318;52.068;5.188;2023-04-12T09:22:16;99751.0;;;13.82;71.08
68376;BME280;55318;52.068;5.188;2023-04-12T09:25:40;99753.0;;;13.91;71.89
68376;BME280;55318;52.068;5.188;2023-04-12T09:27:16;99752.0;;;13.87;72.03
68376;BME280;55318;52.068;5.188;2023-04-12T09:28:53;99752.0;;;14.11;73.73
68376;BME280;55318;52.068;5.188;2023-04-12T09:39:14;99756.0;;;14.14;72.63
68376;BME280;55318;52.068;5.188;2023-04-12T09:42:26;99760.0;;;14.21;74.97
68376;BME280;55318;52.068;5.188;2023-04-12T09:44:03;99757.0;;;14.15;74.11
68376;BME280;55318;52.068;5.188;2023-04-12T09:45:39;99761.0;;;14.02;73.33
68376;BME280;55318;52.068;5.188;2023-04-12T09:48:54;99752.0;;;14.0;73.58
68376;BME280;55318;52.068;5.188;2023-04-12T09:50:31;99751.0;;;14.01;72.11
68376;BME280;55318;52.068;5.188;2023-04-12T09:52:08;99755.0;;;13.81;70.28
68376;BME280;55318;52.068;5.188;2023-04-12T09:53:47;99753.0;;;13.96;72.09
68376;BME280;55318;52.068;5.188;2023-04-12T09:57:03;99749.0;;;13.88;72.05
68376;BME280;55318;52.068;5.188;2023-04-12T09:58:41;99750.0;;;14.05;73.62
68376;BME280;55318;52.068;5.188;2023-04-12T10:00:21;99741.0;;;14.14;72.58
68376;BME280;55318;52.068;5.188;2023-04-12T10:03:34;99744.0;;;14.11;74.14
68376;BME280;55318;52.068;5.188;2023-04-12T10:05:11;99740.0;;;14.21;71.81
68376;BME280;55318;52.068;5.188;2023-04-12T10:06:48;99740.0;;;14.41;71.22
68376;BME280;55318;52.068;5.188;2023-04-12T10:08:25;99740.0;;;14.6;71.74
68376;BME280;55318;52.068;5.188;2023-04-12T10:11:40;99741.0;;;14.59;69.19
68376;BME280;55318;52.068;5.188;2023-04-12T10:13:20;99734.0;;;14.48;67.08
68376;BME280;55318;52.068;5.188;2023-04-12T10:14:57;99738.0;;;14.5;66.81
68376;BME280;55318;52.068;5.188;2023-04-12T10:18:12;99737.0;;;14.59;67.86
68376;BME280;55318;52.068;5.188;2023-04-12T10:19:51;99733.0;;;14.61;69.62
68376;BME280;55318;52.068;5.188;2023-04-12T10:21:28;99739.0;;;14.47;68.66
68376;BME280;55318;52.068;5.188;2023-04-12T10:23:05;99744.0;;;14.47;67.67
68376;BME280;55318;52.068;5.188;2023-04-12T10:26:18;99742.0;;;14.3;66.75
68376;BME280;55318;52.068;5.188;2023-04-12T10:27:55;99738.0;;;14.07;64.25
68376;BME280;55318;52.068;5.188;2023-04-12T10:29:32;99744.0;;;14.04;64.91
68376;BME280;55318;52.068;5.188;2023-04-12T10:33:17;99741.0;;;14.08;65.47
68376;BME280;55318;52.068;5.188;2023-04-12T10:34:55;99743.0;;;13.88;66.12
68376;BME280;55318;52.068;5.188;2023-04-12T10:37:05;99747.0;;;13.94;67.87
68376;BME280;55318;52.068;5.188;2023-04-12T10:38:45;99749.0;;;13.88;66.84
68376;BME280;55318;52.068;5.188;2023-04-12T10:40:21;99747.0;;;13.83;68.55
68376;BME280;55318;52.068;5.188;2023-04-12T10:42:28;99751.0;;;13.7;66.06
68376;BME280;55318;52.068;5.188;2023-04-12T10:44:23;99751.0;;;13.76;66.69
68376;BME280;55318;52.068;5.188;2023-04-12T10:46:00;99750.0;;;13.9;69.62
68376;BME280;55318;52.068;5.188;2023-04-12T10:50:20;99753.0;;;13.77;69.69
68376;BME280;55318;52.068;5.188;2023-04-12T10:52:14;99742.0;;;13.89;69.25
68376;BME280;55318;52.068;5.188;2023-04-12T10:53:51;99750.0;;;13.89;68.86
68376;BME280;55318;52.068;5.188;2023-04-12T10:55:28;99742.0;;;13.93;68.42
68376;BME280;55318;52.068;5.188;2023-04-12T10:57:06;99746.0;;;13.86;69.84
68376;BME280;55318;52.068;5.188;2023-04-12T10:58:58;99749.0;;;13.96;68.75
68376;BME280;55318;52.068;5.188;2023-04-12T11:01:40;99747.0;;;14.04;69.53
68376;BME280;55318;52.068;5.188;2023-04-12T11:04:05;99755.0;;;14.04;67.06
68376;BME280;55318;52.068;5.188;2023-04-12T11:06:01;99750.0;;;13.93;67.28
68376;BME280;55318;52.068;5.188;2023-04-12T11:07:39;99758.0;;;13.8;66.77
68376;BME280;55318;52.068;5.188;2023-04-12T11:09:17;99755.0;;;13.91;62.7
68376;BME280;55318;52.068;5.188;2023-04-12T11:12:37;99755.0;;;13.76;64.61
68376;BME280;55318;52.068;5.188;2023-04-12T11:14:14;99758.0;;;13.72;64.22
68376;BME280;55318;52.068;5.188;2023-04-12T11:15:53;99756.0;;;13.59;64.73
68376;BME280;55318;52.068;5.188;2023-04-12T11:17:29;99758.0;;;13.76;67.19
68376;BME280;55318;52.068;5.188;2023-04-12T11:20:43;99764.0;;;13.85;66.5
68376;BME280;55318;52.068;5.188;2023-04-12T11:22:23;99761.0;;;13.96;64.24
68376;BME280;55318;52.068;5.188;2023-04-12T11:23:59;99761.0;;;13.96;63.05
68376;BME280;55318;52.068;5.188;2023-04-12T11:27:13;99758.0;;;13.85;61.91